Time;durP1;ratioP1;P1;durP2;ratioP2;P2;SDS_P1;SDS_P2;PMS_P1;PMS_P2;Temp;Humidity;BMP_temperature;BMP_pressure;BME280_temperature;BME280_humidity;BME280_pressure;Samples;Min_cycle;Max_cycle;Signal;HPM_P1;HPM_P2
2022/07/28 00:01:48;;;;;;;6.45;2.00;;;;;;;13.47;70.17;101971.91;6125518;23;20002;-72
2022/07/28 00:04:14;;;;;;;5.82;1.73;;;;;;;13.44;70.25;101974.66;6125672;23;20005;-72
2022/07/28 00:06:39;;;;;;;6.93;1.60;;;;;;;13.49;70.38;101989.03;6125309;23;20093;-75
2022/07/28 00:09:04;;;;;;;5.10;1.50;;;;;;;13.44;70.29;101983.25;6125444;23;20013;-70
2022/07/28 00:11:30;;;;;;;3.67;1.73;;;;;;;13.43;70.75;101986.78;6125831;23;20009;-71
2022/07/28 00:13:55;;;;;;;5.47;1.65;;;;;;;13.40;70.84;101986.97;6125366;23;20033;-70
2022/07/28 00:16:20;;;;;;;3.13;1.73;;;;;;;13.40;71.87;101979.19;6125023;23;20021;-73
2022/07/28 00:18:46;;;;;;;5.70;1.73;;;;;;;13.36;70.89;101984.63;6125385;23;20336;-71
2022/07/28 00:21:12;;;;;;;6.18;1.58;;;;;;;13.33;71.26;101980.44;6125676;23;20064;-72
2022/07/28 00:23:37;;;;;;;6.25;1.80;;;;;;;13.16;71.18;101954.56;6127728;23;20323;-72
2022/07/28 00:26:03;;;;;;;5.38;1.73;;;;;;;13.11;71.64;101959.19;6127290;23;20006;-74
2022/07/28 00:28:28;;;;;;;7.40;2.30;;;;;;;13.19;71.82;101985.59;6127370;23;20010;-72
2022/07/28 00:30:54;;;;;;;8.32;1.80;;;;;;;13.18;71.88;101987.31;6127421;23;20017;-72
2022/07/28 00:33:20;;;;;;;4.75;1.80;;;;;;;13.13;72.00;101991.91;6127072;23;20002;-74
2022/07/28 00:35:45;;;;;;;6.93;2.05;;;;;;;13.07;72.62;101988.78;6127567;23;20006;-71
2022/07/28 00:38:10;;;;;;;4.60;1.73;;;;;;;12.97;73.40;101982.44;6127256;23;20010;-70
2022/07/28 00:43:20;;;;;;;6.60;1.90;;;;;;;12.82;73.65;101974.59;6127334;23;20399;-74
2022/07/28 00:45:46;;;;;;;6.40;1.80;;;;;;;12.76;73.79;101979.25;6126815;23;20001;-76
2022/07/28 00:48:11;;;;;;;6.60;1.80;;;;;;;12.63;73.96;101966.13;6126149;23;20065;-71
2022/07/28 00:50:38;;;;;;;5.07;2.00;;;;;;;12.49;74.04;101953.91;6127080;23;20010;-72
2022/07/28 00:53:05;;;;;;;4.43;1.80;;;;;;;12.55;75.21;101965.69;6127320;23;20009;-72
2022/07/28 00:55:30;;;;;;;5.75;2.08;;;;;;;12.50;75.57;101971.13;6127254;23;19998;-71
2022/07/28 00:57:56;;;;;;;5.60;2.08;;;;;;;12.35;74.96;101953.78;6127090;23;20323;-71
2022/07/28 01:00:21;;;;;;;5.35;2.00;;;;;;;12.33;75.62;101956.47;6126639;23;20064;-73
2022/07/28 01:02:47;;;;;;;8.85;2.28;;;;;;;12.40;75.62;101967.34;6127112;23;20006;-76
2022/07/28 01:05:14;;;;;;;4.85;2.00;;;;;;;12.23;75.60;101939.72;6127299;23;20309;-73
2022/07/28 01:07:49;;;;;;;7.63;2.28;;;;;;;12.34;75.74;101954.72;6126832;23;20439;-76
2022/07/28 01:10:39;;;;;;;4.65;2.05;;;;;;;12.29;76.04;101956.69;6100911;23;20141;-75
2022/07/28 01:13:50;;;;;;;5.82;2.40;;;;;;;12.24;75.62;101956.94;6126807;23;20412;-72
2022/07/28 01:16:16;;;;;;;5.82;2.05;;;;;;;12.15;76.38;101954.00;6126599;23;20042;-76
2022/07/28 01:18:48;;;;;;;6.43;2.03;;;;;;;12.14;76.80;101957.50;6127102;23;20017;-77
2022/07/28 01:21:19;;;;;;;5.95;2.20;;;;;;;12.07;76.76;101954.38;6126353;23;20009;-78
2022/07/28 01:24:10;;;;;;;6.32;2.65;;;;;;;12.04;76.25;101957.97;6126919;23;20068;-74
2022/07/28 01:26:47;;;;;;;7.85;2.28;;;;;;;11.84;77.22;101934.00;6126597;23;20017;-76
2022/07/28 01:29:26;;;;;;;5.93;2.15;;;;;;;11.94;77.17;101948.16;6126772;23;20013;-72
2022/07/28 01:32:12;;;;;;;6.95;2.25;;;;;;;11.90;77.06;101951.84;6126376;23;20431;-74
2022/07/28 01:35:02;;;;;;;6.72;2.88;;;;;;;11.88;77.74;101948.47;6126694;23;20101;-77
2022/07/28 01:37:29;;;;;;;6.45;2.28;;;;;;;11.80;78.16;101951.47;6125895;23;20009;-73
2022/07/28 01:39:57;;;;;;;10.20;2.65;;;;;;;11.64;78.80;101934.97;6126735;23;20014;-72
2022/07/28 01:42:29;;;;;;;7.38;2.53;;;;;;;11.70;78.98;101945.00;6126872;23;20077;-73
2022/07/28 01:44:56;;;;;;;6.68;2.30;;;;;;;11.73;78.89;101944.88;6126550;23;20010;-75
2022/07/28 01:47:23;;;;;;;5.00;2.17;;;;;;;11.59;78.38;101927.44;6126466;23;20017;-78
2022/07/28 01:49:49;;;;;;;6.50;2.60;;;;;;;11.72;78.41;101932.84;6100546;23;20018;-78
2022/07/28 01:52:16;;;;;;;6.93;2.60;;;;;;;11.71;78.51;101938.94;6126579;23;20371;-72
2022/07/28 01:54:45;;;;;;;5.13;2.60;;;;;;;11.60;79.46;101939.47;6126251;23;20021;-75
2022/07/28 01:57:13;;;;;;;8.35;2.97;;;;;;;11.71;79.26;101944.94;6126208;23;20033;-70
2022/07/28 01:59:39;;;;;;;6.38;2.50;;;;;;;11.64;79.76;101942.75;6126697;23;20081;-78
2022/07/28 02:02:07;;;;;;;6.22;2.60;;;;;;;11.66;79.14;101941.75;6126358;23;20077;-71
2022/07/28 02:04:35;;;;;;;6.03;2.60;;;;;;;11.68;79.74;101939.06;6126115;23;20012;-76
2022/07/28 02:07:02;;;;;;;5.68;2.20;;;;;;;11.68;79.32;101929.56;6126485;23;20010;-72
2022/07/28 02:09:29;;;;;;;5.03;2.45;;;;;;;11.69;79.53;101927.81;6126497;23;20005;-77
2022/07/28 02:11:56;;;;;;;6.55;2.72;;;;;;;11.66;79.32;101928.81;6126492;23;20002;-73
2022/07/28 02:14:23;;;;;;;10.50;2.90;;;;;;;11.60;79.09;101908.44;6126306;23;20012;-75
2022/07/28 02:16:54;;;;;;;6.50;2.58;;;;;;;11.68;78.97;101926.13;6125907;23;20424;-72
2022/07/28 02:19:20;;;;;;;;;;;;;;;11.71;78.02;101915.66;6126743;23;20006;-78
2022/07/28 02:21:48;;;;;;;7.05;2.50;;;;;;;11.47;79.05;101895.25;6126595;23;19915;-76
2022/07/28 02:24:17;;;;;;;6.57;2.85;;;;;;;11.68;80.17;101924.38;6126160;23;20053;-70
2022/07/28 02:26:49;;;;;;;6.55;2.97;;;;;;;11.57;79.31;101908.56;6126098;23;20006;-70
2022/07/28 02:29:17;;;;;;;8.30;2.88;;;;;;;11.56;78.71;101909.47;6126069;23;20412;-76
2022/07/28 02:32:07;;;;;;;6.53;2.78;;;;;;;11.69;79.39;101918.28;6125896;23;20301;-78
2022/07/28 02:34:37;;;;;;;7.28;2.70;;;;;;;11.72;78.47;101914.75;6125965;23;20009;-75
2022/07/28 02:37:05;;;;;;;10.10;2.67;;;;;;;11.73;79.13;101919.84;6126329;23;20006;-78
2022/07/28 02:39:39;;;;;;;8.98;2.78;;;;;;;11.72;78.62;101920.75;6126071;23;20438;-70
2022/07/28 02:42:12;;;;;;;7.18;2.70;;;;;;;11.75;78.06;101928.34;6126414;23;20009;-71
2022/07/28 02:44:44;;;;;;;6.57;2.65;;;;;;;11.77;77.86;101925.69;6125525;23;20002;-79
2022/07/28 02:47:13;;;;;;;5.15;2.13;;;;;;;11.72;77.10;101918.16;6125738;23;20006;-71
2022/07/28 02:49:40;;;;;;;11.18;2.90;;;;;;;11.66;77.23;101905.53;6126165;23;20009;-79
2022/07/28 02:52:07;;;;;;;7.55;2.22;;;;;;;11.60;77.30;101903.25;6125796;23;20006;-79
2022/07/28 02:54:34;;;;;;;6.50;2.50;;;;;;;11.69;76.54;101915.72;6098808;23;20475;-79
2022/07/28 02:57:00;;;;;;;4.03;2.42;;;;;;;11.70;76.74;101925.16;6126040;23;20001;-78
2022/07/28 02:59:26;;;;;;;5.78;2.58;;;;;;;11.73;76.44;101922.41;6125866;23;20002;-71
2022/07/28 03:01:53;;;;;;;9.23;2.65;;;;;;;11.68;75.97;101924.38;6126188;23;20006;-71
2022/07/28 03:04:55;;;;;;;7.63;2.35;;;;;;;11.68;75.57;101921.78;6126050;23;20162;-70
2022/07/28 03:07:05;;;;;;;7.30;2.80;;;;;;;11.45;76.20;101885.91;6125697;23;20014;-71
2022/07/28 03:09:36;;;;;;;9.07;2.50;;;;;;;11.63;76.40;101913.44;6126151;23;20028;-70
2022/07/28 03:12:02;;;;;;;7.32;2.65;;;;;;;11.68;75.78;101915.78;6126147;23;20336;-71
2022/07/28 03:14:27;;;;;;;7.80;2.35;;;;;;;11.67;75.54;101919.28;6125905;23;20002;-70
2022/07/28 03:16:52;;;;;;;5.43;2.45;;;;;;;11.55;75.81;101891.47;6126309;23;20006;-71
2022/07/28 03:19:18;;;;;;;11.32;2.72;;;;;;;11.67;75.15;101919.28;6125559;23;20002;-71
2022/07/28 03:21:48;;;;;;;6.28;2.70;;;;;;;11.69;75.98;101913.13;6125574;23;20483;-78
2022/07/28 03:24:15;;;;;;;5.97;2.25;;;;;;;11.68;75.60;101919.22;6125527;23;20005;-71
2022/07/28 03:26:48;;;;;;;5.75;2.50;;;;;;;11.66;75.81;101909.84;6125511;23;20061;-78
2022/07/28 03:29:16;;;;;;;7.25;2.13;;;;;;;11.70;75.83;101930.34;6125531;23;20363;-74
2022/07/28 03:31:46;;;;;;;4.18;2.38;;;;;;;11.69;76.62;101933.81;6125777;23;20006;-70
2022/07/28 03:34:13;;;;;;;8.80;2.95;;;;;;;11.53;76.71;101917.41;6125519;23;20428;-71
2022/07/28 03:36:44;;;;;;;7.82;2.65;;;;;;;11.62;76.48;101926.47;6125625;23;20363;-71
2022/07/28 03:39:10;;;;;;;;;;;;;;;11.62;75.58;101919.53;6126476;23;20008;-75
2022/07/28 03:41:37;;;;;;;8.55;2.45;;;;;;;11.54;77.46;101929.41;6125871;23;19925;-78
2022/07/28 03:44:04;;;;;;;7.13;2.60;;;;;;;11.49;77.57;101937.38;6125759;23;20008;-71
2022/07/28 03:46:30;;;;;;;7.45;2.45;;;;;;;11.48;77.43;101935.72;6125728;23;20029;-70
2022/07/28 03:48:55;;;;;;;6.30;2.20;;;;;;;11.42;77.10;101925.69;6125574;23;20002;-71
2022/07/28 03:51:20;;;;;;;6.32;2.63;;;;;;;11.37;77.60;101930.25;6125498;23;20006;-72
2022/07/28 03:53:46;;;;;;;6.07;2.25;;;;;;;11.26;78.08;101913.56;6125738;23;20012;-76
2022/07/28 03:56:12;;;;;;;8.23;2.40;;;;;;;11.31;77.76;101930.56;6125335;23;20343;-72
2022/07/28 03:58:37;;;;;;;7.75;2.22;;;;;;;11.22;78.18;101930.16;6125501;23;20379;-70
2022/07/28 04:01:03;;;;;;;6.90;2.88;;;;;;;11.20;78.22;101931.03;6125352;23;20002;-70
2022/07/28 04:03:29;;;;;;;4.82;2.40;;;;;;;11.15;78.50;101924.44;6125295;23;20080;-73
2022/07/28 04:05:55;;;;;;;8.40;3.13;;;;;;;11.11;79.37;101928.06;6125382;23;20013;-71
2022/07/28 04:08:21;;;;;;;7.68;2.83;;;;;;;11.10;79.29;101927.22;6125822;23;20013;-71
2022/07/28 04:10:46;;;;;;;10.68;2.80;;;;;;;11.08;79.44;101926.47;6125210;23;20304;-73
2022/07/28 04:13:11;;;;;;;5.43;2.85;;;;;;;11.10;78.94;101923.81;6125371;23;20002;-71
2022/07/28 04:15:37;;;;;;;6.63;2.75;;;;;;;11.11;79.57;101921.16;6125308;23;20021;-75
2022/07/28 04:18:02;;;;;;;8.90;3.00;;;;;;;10.94;79.58;101903.03;6125094;23;20013;-73
2022/07/28 04:20:28;;;;;;;7.35;2.75;;;;;;;10.98;79.46;101906.31;6125643;23;20420;-80
2022/07/28 04:22:54;;;;;;;15.60;3.10;;;;;;;11.05;79.73;101916.28;6125406;23;20029;-71
2022/07/28 04:25:23;;;;;;;7.13;3.05;;;;;;;11.04;79.70;101903.44;6125647;23;20006;-71
2022/07/28 04:27:48;;;;;;;6.75;3.20;;;;;;;11.14;79.99;101923.59;6125331;23;20016;-72
2022/07/28 04:30:16;;;;;;;8.73;2.95;;;;;;;11.14;79.54;101921.00;6125240;23;20129;-72
2022/07/28 04:32:43;;;;;;;7.22;2.83;;;;;;;11.16;79.18;101910.59;6125155;23;20006;-72
2022/07/28 04:35:10;;;;;;;9.85;3.20;;;;;;;11.25;79.60;101917.06;6125296;23;20025;-72
2022/07/28 04:37:35;;;;;;;6.45;2.72;;;;;;;11.22;79.16;101901.72;6125033;23;20006;-72
2022/07/28 04:40:01;;;;;;;8.05;3.10;;;;;;;11.34;79.83;101920.06;6125698;23;20014;-71
2022/07/28 04:42:27;;;;;;;9.65;3.55;;;;;;;11.40;78.62;101918.91;6125203;23;20016;-71
2022/07/28 04:44:52;;;;;;;7.07;2.80;;;;;;;11.49;79.07;101921.03;6125796;23;20012;-72
2022/07/28 04:47:18;;;;;;;4.85;2.78;;;;;;;11.56;78.26;101922.41;6099489;23;20002;-72
2022/07/28 04:49:44;;;;;;;8.25;3.00;;;;;;;11.61;77.90;101919.63;6125263;23;20006;-70
2022/07/28 04:52:09;;;;;;;7.25;3.17;;;;;;;11.65;78.08;101916.78;6125183;23;20424;-71
2022/07/28 04:54:36;;;;;;;7.63;2.60;;;;;;;11.65;77.78;101905.59;6125284;23;20052;-72
2022/07/28 04:57:02;;;;;;;8.10;3.25;;;;;;;11.71;78.25;101906.13;6125520;23;20010;-74
2022/07/28 04:59:27;;;;;;;9.00;2.83;;;;;;;11.71;77.34;101903.56;6125607;23;20040;-72
2022/07/28 05:01:52;;;;;;;7.63;3.00;;;;;;;11.83;77.43;101916.81;6125346;23;19998;-72
2022/07/28 05:04:18;;;;;;;13.82;3.28;;;;;;;11.88;77.21;101912.22;6125333;23;20009;-80
2022/07/28 05:06:43;;;;;;;10.00;3.10;;;;;;;11.91;77.11;101912.09;6124979;23;20006;-72
2022/07/28 05:09:09;;;;;;;9.73;3.22;;;;;;;11.92;77.55;101916.34;6127297;23;20002;-74
2022/07/28 05:11:34;;;;;;;6.47;3.05;;;;;;;11.90;76.97;101894.88;6127518;23;20016;-76
2022/07/28 05:14:00;;;;;;;5.57;2.95;;;;;;;12.19;76.80;101927.00;6127235;23;20012;-72
2022/07/28 05:16:25;;;;;;;9.00;2.97;;;;;;;12.28;76.22;101900.63;6127104;23;20021;-72
2022/07/28 05:18:51;;;;;;;6.85;3.05;;;;;;;12.66;74.86;101919.31;6127310;23;20025;-72
2022/07/28 05:21:17;;;;;;;7.50;2.38;;;;;;;12.81;74.10;101918.47;6127223;23;20018;-72
2022/07/28 05:23:42;;;;;;;7.95;3.20;;;;;;;13.12;73.25;101927.97;6127445;23;20412;-73
2022/07/28 05:26:07;;;;;;;13.00;3.25;;;;;;;13.30;72.46;101918.38;6127314;23;20013;-74
2022/07/28 05:28:33;;;;;;;8.05;2.90;;;;;;;13.85;71.05;101914.31;6127202;23;20006;-72
2022/07/28 05:30:58;;;;;;;10.05;2.70;;;;;;;14.56;68.98;101899.56;6126554;23;20033;-72
2022/07/28 05:33:24;;;;;;;7.45;3.00;;;;;;;15.39;66.23;101915.88;6126951;23;20012;-77
2022/07/28 05:35:53;;;;;;;7.20;2.72;;;;;;;15.76;64.51;101916.09;6100582;23;20010;-73
2022/07/28 05:38:18;;;;;;;8.48;2.75;;;;;;;16.49;62.54;101910.97;6126637;23;20053;-73
2022/07/28 05:40:43;;;;;;;9.15;2.63;;;;;;;17.45;58.87;101904.00;6127078;23;20002;-73
2022/07/28 05:43:09;;;;;;;7.00;2.30;;;;;;;18.34;55.90;101905.88;6127141;23;20328;-72
2022/07/28 05:45:34;;;;;;;46.80;6.75;;;;;;;19.01;53.77;101899.69;6126744;23;20030;-73
2022/07/28 05:47:59;;;;;;;32.53;5.72;;;;;;;19.04;53.32;101904.66;6126680;23;20074;-74
2022/07/28 05:50:25;;;;;;;33.22;6.45;;;;;;;18.81;52.33;101875.13;6126472;23;20440;-74
2022/07/28 05:52:50;;;;;;;19.38;4.03;;;;;;;18.96;52.52;101893.16;6126543;23;20480;-73
2022/07/28 05:55:16;;;;;;;45.72;7.60;;;;;;;19.15;51.95;101901.97;6126790;23;20009;-74
2022/07/28 05:57:42;;;;;;;58.50;7.93;;;;;;;18.71;52.12;101912.63;6125890;23;20006;-70
2022/07/28 06:00:13;;;;;;;18.67;4.55;;;;;;;18.35;53.03;101914.56;6127497;23;20006;-70
2022/07/28 06:02:39;;;;;;;9.77;3.45;;;;;;;18.70;52.49;101917.03;6126712;23;20073;-71
2022/07/28 06:05:05;;;;;;;14.68;3.53;;;;;;;18.47;53.96;101913.56;6126010;23;20002;-72
2022/07/28 06:07:31;;;;;;;9.77;2.38;;;;;;;18.80;53.33;101907.50;6126477;23;20038;-70
2022/07/28 06:09:56;;;;;;;9.25;2.60;;;;;;;19.99;50.46;101922.97;6126572;23;20416;-71
2022/07/28 06:12:22;;;;;;;8.27;2.38;;;;;;;20.37;48.28;101911.78;6126499;23;20006;-70
2022/07/28 06:14:47;;;;;;;6.45;1.90;;;;;;;20.12;48.23;101917.47;6126252;23;20040;-70
2022/07/28 06:17:14;;;;;;;9.13;2.63;;;;;;;19.29;49.47;101921.00;6126730;23;20005;-72
2022/07/28 06:19:40;;;;;;;8.05;2.17;;;;;;;18.53;51.46;101905.25;6125882;23;20010;-76
2022/07/28 06:22:05;;;;;;;7.15;2.47;;;;;;;17.86;54.06;101904.44;6126253;23;20017;-71
2022/07/28 06:24:31;;;;;;;7.15;2.40;;;;;;;17.49;54.46;101905.41;6114311;23;20006;-76
2022/07/28 06:26:56;;;;;;;7.32;2.45;;;;;;;17.06;57.04;101923.44;6126265;23;20006;-72
2022/07/28 06:29:23;;;;;;;8.75;2.50;;;;;;;16.77;57.44;101924.72;6126058;23;20006;-81
2022/07/28 06:31:48;;;;;;;7.43;1.92;;;;;;;16.39;57.54;101906.53;6126228;23;20420;-80
2022/07/28 06:34:14;;;;;;;6.25;2.00;;;;;;;16.26;58.92;101909.16;6126541;23;20012;-70
2022/07/28 06:36:39;;;;;;;7.55;2.13;;;;;;;16.29;58.93;101908.94;6125951;23;20006;-70
2022/07/28 06:39:05;;;;;;;9.10;2.20;;;;;;;16.45;59.30;101906.13;6126340;23;20002;-71
2022/07/28 06:41:30;;;;;;;5.63;2.25;;;;;;;16.58;58.05;101901.69;6126304;23;20014;-78
2022/07/28 06:43:55;;;;;;;9.00;2.17;;;;;;;16.63;57.16;101915.25;6126510;23;20085;-71
2022/07/28 06:46:21;;;;;;;7.22;2.03;;;;;;;16.56;57.70;101927.03;6126356;23;20021;-73
2022/07/28 06:48:47;;;;;;;15.18;2.70;;;;;;;16.79;57.64;101897.56;6126438;23;20005;-72
2022/07/28 06:51:14;;;;;;;5.88;2.03;;;;;;;17.59;55.48;101904.72;6126133;23;20010;-72
2022/07/28 06:53:39;;;;;;;9.45;2.05;;;;;;;17.44;54.95;101912.78;6126047;23;20010;-71
2022/07/28 06:56:04;;;;;;;5.13;1.83;;;;;;;17.13;55.40;101913.41;6126240;23;20396;-79
2022/07/28 06:58:30;;;;;;;5.70;1.88;;;;;;;17.42;55.54;101909.47;6126247;23;20002;-72
2022/07/28 07:00:55;;;;;;;6.28;2.10;;;;;;;18.30;54.03;101919.31;6126412;23;20060;-71
2022/07/28 07:03:20;;;;;;;8.15;2.10;;;;;;;18.62;53.11;101916.78;6125843;23;20065;-72
2022/07/28 07:05:46;;;;;;;8.68;2.30;;;;;;;18.97;52.80;101916.56;6125789;23;20010;-72
2022/07/28 07:08:11;;;;;;;6.95;1.90;;;;;;;19.87;50.42;101916.97;6125922;23;20006;-71
2022/07/28 07:10:36;;;;;;;7.97;1.83;;;;;;;19.89;48.56;101904.56;6125917;23;20085;-71
2022/07/28 07:13:02;;;;;;;5.65;1.50;;;;;;;19.25;50.42;101914.31;6126178;23;20034;-71
2022/07/28 07:15:27;;;;;;;8.05;2.13;;;;;;;18.90;50.28;101907.56;6126043;23;20069;-72
2022/07/28 07:17:53;;;;;;;6.30;2.08;;;;;;;19.34;49.59;101893.44;6126212;23;20038;-73
2022/07/28 07:20:18;;;;;;;7.95;1.90;;;;;;;19.99;48.62;101912.47;6125867;23;20010;-80
2022/07/28 07:22:45;;;;;;;5.97;1.73;;;;;;;19.91;48.46;101910.50;6125470;23;20006;-85
2022/07/28 07:25:16;;;;;;;6.05;1.98;;;;;;;19.53;50.17;101916.31;6126042;23;20081;-73
2022/07/28 07:27:42;;;;;;;6.38;1.90;;;;;;;19.34;49.81;101911.78;6125945;23;20005;-73
2022/07/28 07:30:09;;;;;;;7.93;1.70;;;;;;;20.65;47.43;101898.88;6125419;23;20057;-73
2022/07/28 07:32:35;;;;;;;5.45;1.77;;;;;;;21.89;44.60;101914.69;6124778;23;20002;-72
2022/07/28 07:35:00;;;;;;;5.35;1.88;;;;;;;22.33;42.29;101894.72;6126419;23;20012;-75
2022/07/28 07:37:25;;;;;;;6.20;1.70;;;;;;;21.55;44.12;101906.50;6126122;23;20069;-84
2022/07/28 07:39:51;;;;;;;7.60;1.90;;;;;;;20.50;46.47;101901.06;6099150;23;20431;-82
2022/07/28 07:42:16;;;;;;;8.40;1.77;;;;;;;19.80;48.13;101901.88;6125748;23;20005;-74
2022/07/28 07:44:42;;;;;;;9.15;2.00;;;;;;;19.45;49.95;101908.25;6125720;23;20056;-77
2022/07/28 07:47:10;;;;;;;6.22;1.95;;;;;;;19.07;51.04;101914.03;6125784;23;20009;-75
2022/07/28 07:49:38;;;;;;;9.85;1.85;;;;;;;18.63;51.76;101919.25;6125753;23;20002;-73
2022/07/28 07:52:04;;;;;;;6.68;1.45;;;;;;;18.32;52.62;101901.72;6125629;23;20006;-76
2022/07/28 07:54:29;;;;;;;5.95;1.90;;;;;;;18.35;53.29;101902.31;6125781;23;20409;-73
2022/07/28 07:56:55;;;;;;;5.65;2.17;;;;;;;18.15;53.02;101886.53;6125806;23;20328;-82
2022/07/28 07:59:20;;;;;;;5.05;2.15;;;;;;;18.24;53.89;101898.88;6125589;23;20029;-84
2022/07/28 08:01:49;;;;;;;7.22;1.98;;;;;;;18.09;54.05;101868.69;6099111;23;20006;-80
2022/07/28 08:04:15;;;;;;;8.20;2.15;;;;;;;18.27;53.47;101889.00;6125798;23;20002;-80
2022/07/28 08:06:41;;;;;;;7.97;1.83;;;;;;;18.27;53.47;101899.47;6125320;23;20595;-81
2022/07/28 08:09:06;;;;;;;5.60;1.80;;;;;;;17.86;54.42;101857.41;6125554;23;20029;-83
2022/07/28 08:11:32;;;;;;;5.60;1.75;;;;;;;18.08;54.96;101901.00;6125775;23;20088;-82
2022/07/28 08:13:57;;;;;;;6.70;1.50;;;;;;;18.19;54.05;101901.00;6125531;23;20010;-83
2022/07/28 08:16:22;;;;;;;5.45;1.65;;;;;;;18.20;53.55;101894.84;6125277;23;20014;-82
2022/07/28 08:18:50;;;;;;;7.00;2.20;;;;;;;18.05;54.12;101899.47;6125831;23;20380;-82
2022/07/28 08:21:16;;;;;;;7.43;2.08;;;;;;;18.12;55.07;101897.22;6125156;23;19998;-76
2022/07/28 08:23:42;;;;;;;4.85;1.48;;;;;;;18.09;52.37;101894.84;6125426;23;20034;-81
2022/07/28 08:26:07;;;;;;;6.28;1.77;;;;;;;17.94;53.50;101874.19;6098975;23;20002;-81
2022/07/28 08:28:32;;;;;;;8.80;1.88;;;;;;;18.06;53.66;101888.91;6125659;23;20532;-76
2022/07/28 08:30:58;;;;;;;5.80;1.90;;;;;;;18.12;53.72;101894.63;6125833;23;20005;-77
2022/07/28 08:33:23;;;;;;;7.57;2.08;;;;;;;18.06;53.55;101888.06;6125894;23;20010;-78
2022/07/28 08:35:49;;;;;;;6.55;1.60;;;;;;;18.11;55.08;101896.41;6125316;23;20041;-76
2022/07/28 08:38:15;;;;;;;5.70;1.45;;;;;;;18.28;53.10;101890.66;6125286;23;20002;-75
2022/07/28 08:40:42;;;;;;;5.85;1.60;;;;;;;18.40;53.07;101896.72;6125558;23;20061;-76
2022/07/28 08:43:36;;;;;;;5.93;1.45;;;;;;;18.52;53.07;101893.13;6126246;23;20009;-77
2022/07/28 08:46:05;;;;;;;4.70;1.30;;;;;;;18.79;54.18;101878.84;6113674;23;20010;-75
2022/07/28 08:48:32;;;;;;;3.90;1.50;;;;;;;18.84;50.99;101893.19;6100733;23;20006;-76
2022/07/28 08:51:04;;;;;;;6.50;1.60;;;;;;;18.60;52.08;101875.03;6127136;23;20100;-77
2022/07/28 08:53:30;;;;;;;4.35;1.40;;;;;;;18.77;52.99;101891.19;6126847;23;20025;-78
2022/07/28 08:56:02;;;;;;;6.20;1.25;;;;;;;18.75;52.22;101877.41;6127558;23;20323;-76
2022/07/28 08:58:30;;;;;;;4.97;1.42;;;;;;;18.46;51.18;101854.38;6127599;23;20009;-74
2022/07/28 09:00:55;;;;;;;6.43;1.55;;;;;;;18.65;51.38;101874.69;6127296;23;19998;-76
2022/07/28 09:03:21;;;;;;;4.15;1.40;;;;;;;18.55;50.97;101869.34;6127258;23;20040;-76
2022/07/28 09:05:48;;;;;;;7.40;1.70;;;;;;;18.50;50.71;101884.59;6127145;23;20006;-77
2022/07/28 09:08:16;;;;;;;6.40;1.35;;;;;;;18.57;52.83;101884.91;6126957;23;20057;-79
2022/07/28 09:10:41;;;;;;;6.82;1.50;;;;;;;18.47;51.75;101848.19;6126819;23;20017;-77
2022/07/28 09:13:07;;;;;;;5.70;1.40;;;;;;;18.64;51.75;101875.63;6127313;23;20013;-78
2022/07/28 09:15:33;;;;;;;6.40;1.60;;;;;;;18.61;51.29;101881.09;6126978;23;20014;-76
2022/07/28 09:17:59;;;;;;;5.60;1.40;;;;;;;18.48;51.22;101841.16;6127055;23;20006;-78
2022/07/28 09:20:25;;;;;;;7.35;2.17;;;;;;;18.75;50.27;101875.63;6126847;23;20005;-76
2022/07/28 09:23:01;;;;;;;6.63;1.80;;;;;;;18.69;51.34;101855.19;6099961;23;20068;-77
2022/07/28 09:25:27;;;;;;;5.07;1.58;;;;;;;18.77;51.34;101858.00;6127082;23;20412;-78
2022/07/28 09:27:53;;;;;;;5.78;1.52;;;;;;;18.84;49.93;101858.34;6127131;23;20073;-78
2022/07/28 09:30:30;;;;;;;5.10;1.60;;;;;;;18.83;50.30;101862.75;6126824;23;20002;-77
2022/07/28 09:33:20;;;;;;;7.40;1.60;;;;;;;18.97;51.61;101858.16;6126593;23;20005;-75
2022/07/28 09:35:50;;;;;;;5.75;1.60;;;;;;;19.01;50.83;101857.78;6126924;23;20002;-75
2022/07/28 09:38:16;;;;;;;6.70;1.40;;;;;;;19.09;51.60;101855.38;6126919;23;20080;-76
2022/07/28 09:40:54;;;;;;;7.32;2.13;;;;;;;19.15;50.18;101849.63;6127037;23;20333;-79
2022/07/28 09:43:42;;;;;;;4.60;1.50;;;;;;;19.08;50.98;101822.31;6126784;23;20045;-76
2022/07/28 09:46:12;;;;;;;5.60;1.60;;;;;;;19.26;50.56;101834.78;6126715;23;20028;-75
2022/07/28 09:48:56;;;;;;;7.25;1.70;;;;;;;19.26;50.69;101834.78;6126689;23;20002;-75
2022/07/28 09:51:23;;;;;;;7.72;1.60;;;;;;;19.25;50.63;101823.50;6126516;23;20424;-74
2022/07/28 09:53:49;;;;;;;8.63;1.83;;;;;;;19.16;51.35;101813.78;6126804;23;20365;-77
2022/07/28 09:56:14;;;;;;;7.80;1.60;;;;;;;19.26;49.69;101822.53;6126642;23;20013;-76
2022/07/28 09:58:51;;;;;;;6.30;1.60;;;;;;;19.31;49.54;101812.50;6126607;23;20002;-74
2022/07/28 10:01:19;;;;;;;3.90;1.30;;;;;;;19.39;49.04;101815.31;6126641;23;20010;-75
2022/07/28 10:03:50;;;;;;;3.80;1.48;;;;;;;19.32;48.54;101803.69;6126720;23;20077;-78
2022/07/28 10:06:23;;;;;;;7.80;1.70;;;;;;;19.35;48.64;101824.38;6126393;23;20008;-79
2022/07/28 10:08:50;;;;;;;4.95;1.52;;;;;;;18.94;48.68;101775.50;6126470;23;20041;-77
2022/07/28 10:11:19;;;;;;;5.63;1.40;;;;;;;19.01;48.91;101783.66;6126587;23;20006;-76
2022/07/28 10:13:52;;;;;;;5.85;1.80;;;;;;;19.30;48.94;101829.19;6126079;23;20013;-78
2022/07/28 10:16:18;;;;;;;5.25;1.67;;;;;;;19.34;49.83;101821.91;6126292;23;20026;-78
2022/07/28 10:18:44;;;;;;;5.68;1.70;;;;;;;19.36;48.52;101819.97;6126577;23;20124;-79
2022/07/28 10:21:14;;;;;;;7.00;1.92;;;;;;;19.50;48.52;101822.28;6126489;23;20029;-77
2022/07/28 10:23:49;;;;;;;7.20;1.88;;;;;;;19.61;48.75;101819.59;6099376;23;20041;-76
2022/07/28 10:26:15;;;;;;;5.30;1.42;;;;;;;19.40;48.91;101769.84;6126205;23;20491;-73
2022/07/28 10:28:49;;;;;;;5.03;1.52;;;;;;;19.79;48.03;101811.13;6126113;23;20077;-76
2022/07/28 10:31:24;;;;;;;4.82;1.70;;;;;;;19.88;48.81;101813.78;6126321;23;20032;-76
2022/07/28 10:33:52;;;;;;;7.25;1.80;;;;;;;19.95;48.03;101817.50;6125044;23;20065;-75
2022/07/28 10:36:22;;;;;;;4.53;1.40;;;;;;;19.92;47.52;101823.03;6126443;23;20818;-73
2022/07/28 10:38:50;;;;;;;5.80;1.50;;;;;;;19.87;46.47;101821.78;6126205;23;20412;-73
2022/07/28 10:41:20;;;;;;;5.35;1.40;;;;;;;19.67;45.58;101816.47;6126150;23;20020;-74
2022/07/28 10:43:47;;;;;;;4.57;1.55;;;;;;;19.63;47.22;101811.59;6126337;23;20056;-75
2022/07/28 10:46:13;;;;;;;5.93;1.50;;;;;;;19.65;47.35;101810.50;6126139;23;20432;-75
2022/07/28 10:48:39;;;;;;;4.10;1.40;;;;;;;19.72;47.61;101810.81;6126321;23;20006;-74
2022/07/28 10:51:04;;;;;;;5.68;1.42;;;;;;;19.81;45.81;101811.81;6126459;23;20034;-73
2022/07/28 10:53:45;;;;;;;6.03;1.80;;;;;;;19.84;45.92;101806.28;6125986;23;20327;-73
2022/07/28 10:56:26;;;;;;;4.82;1.38;;;;;;;19.85;47.09;101800.91;6125884;23;20057;-74
2022/07/28 10:59:42;;;;;;;4.03;1.60;;;;;;;20.05;47.64;101802.63;6126034;23;20009;-75
2022/07/28 11:02:08;;;;;;;5.50;1.50;;;;;;;19.99;44.36;101787.44;6008578;23;20019;-76
2022/07/28 11:04:43;;;;;;;5.40;1.40;;;;;;;20.07;46.35;101797.28;6008413;23;20430;-78
2022/07/28 11:07:11;;;;;;;5.13;1.55;;;;;;;20.11;45.06;101796.03;6008374;23;20019;-77
2022/07/28 11:09:36;;;;;;;6.15;1.63;;;;;;;20.16;46.31;101791.22;6008057;23;20015;-77
2022/07/28 11:12:02;;;;;;;7.18;1.75;;;;;;;20.36;45.07;101799.94;6008435;23;20104;-77
2022/07/28 11:14:32;;;;;;;4.85;1.50;;;;;;;20.28;46.00;101763.06;6008524;23;20411;-75
2022/07/28 11:17:00;;;;;;;4.93;1.38;;;;;;;20.59;45.44;101787.41;6008755;23;20011;-78
2022/07/28 11:19:50;;;;;;;4.53;1.52;;;;;;;20.51;45.59;101771.53;6008395;23;20012;-77
2022/07/28 11:22:18;;;;;;;7.07;1.58;;;;;;;20.56;43.76;101788.53;6008456;23;20051;-79
2022/07/28 11:24:59;;;;;;;4.40;1.60;;;;;;;20.53;46.03;101785.31;6008144;23;20026;-76
2022/07/28 11:27:40;;;;;;;5.78;1.50;;;;;;;20.49;44.52;101789.19;6008402;23;20378;-76
2022/07/28 11:30:07;;;;;;;4.43;1.17;;;;;;;20.27;44.35;101764.03;6008141;23;20098;-77
2022/07/28 11:32:52;;;;;;;5.22;1.40;;;;;;;20.38;44.82;101777.03;6008303;23;20466;-74